Time;durP1;ratioP1;P1;durP2;ratioP2;P2;SDS_P1;SDS_P2;PMS_P1;PMS_P2;Temp;Humidity;BMP_temperature;BMP_pressure;BME280_temperature;BME280_humidity;BME280_pressure;Samples;Min_cycle;Max_cycle;Signal;HPM_P1;HPM_P2
2022/04/09 00:00:31;;;;;;;5.40;1.10;;;;;10.90;100185.00;;;;5055301;28;20198;-79
2022/04/09 00:02:58;;;;;;;2.47;0.60;;;;;10.90;100181.00;;;;5054753;28;20211;-79
2022/04/09 00:05:26;;;;;;;4.80;0.70;;;;;10.90;100182.00;;;;5067831;28;20206;-79
2022/04/09 00:07:53;;;;;;;3.15;0.77;;;;;10.90;100184.00;;;;5067208;28;20190;-79
2022/04/09 00:10:21;;;;;;;4.72;0.80;;;;;10.90;100191.00;;;;5048495;28;20261;-79
2022/04/09 00:12:49;;;;;;;2.58;0.82;;;;;10.90;100188.00;;;;5067017;28;20622;-79
2022/04/09 00:15:17;;;;;;;2.83;0.50;;;;;10.90;100187.00;;;;5067496;28;20202;-79
2022/04/09 00:17:46;;;;;;;2.63;0.65;;;;;10.90;100194.00;;;;5068025;28;20203;-78
2022/04/09 00:20:15;;;;;;;3.05;0.45;;;;;10.90;100202.00;;;;5062348;28;20256;-78
2022/04/09 00:22:42;;;;;;;5.50;0.60;;;;;10.90;100212.00;;;;5069185;28;20724;-79
2022/04/09 00:25:11;;;;;;;1.85;0.80;;;;;10.90;100213.00;;;;5062966;28;20194;-78
2022/04/09 00:27:39;;;;;;;4.13;1.10;;;;;10.90;100221.00;;;;5065114;28;20199;-79
2022/04/09 00:30:10;;;;;;;4.65;1.02;;;;;10.90;100223.00;;;;5058516;28;20584;-78
2022/04/09 00:32:37;;;;;;;3.67;0.82;;;;;10.90;100226.00;;;;5066564;28;20202;-79
2022/04/09 00:35:05;;;;;;;4.13;1.45;;;;;10.90;100232.00;;;;5064520;28;20227;-80
2022/04/09 00:37:33;;;;;;;4.03;0.80;;;;;11.00;100238.00;;;;5051982;28;20219;-79
2022/04/09 00:40:01;;;;;;;3.85;0.85;;;;;11.00;100249.00;;;;5064911;28;20238;-79
2022/04/09 00:42:29;;;;;;;4.82;1.15;;;;;11.00;100274.00;;;;5052710;28;20203;-79
2022/04/09 00:44:56;;;;;;;2.72;0.85;;;;;11.00;100272.00;;;;5061696;28;20602;-79
2022/04/09 00:47:25;;;;;;;3.63;0.70;;;;;11.00;100263.00;;;;5064433;28;20191;-79
2022/04/09 00:49:52;;;;;;;4.35;0.75;;;;;11.00;100263.00;;;;5068205;28;20209;-80
2022/04/09 00:52:21;;;;;;;2.28;0.60;;;;;11.00;100265.00;;;;5070950;28;20652;-79
2022/04/09 00:54:50;;;;;;;2.20;0.90;;;;;11.00;100261.00;;;;5059676;28;20249;-79
2022/04/09 00:57:20;;;;;;;5.18;0.60;;;;;11.00;100260.00;;;;5066549;28;20223;-79
2022/04/09 00:59:51;;;;;;;3.40;0.47;;;;;10.90;100264.00;;;;5070561;28;20191;-79
2022/04/09 01:02:19;;;;;;;2.72;0.50;;;;;11.00;100275.00;;;;5057447;28;20200;-78
2022/04/09 01:04:49;;;;;;;2.95;0.60;;;;;10.90;100275.00;;;;5058633;28;20195;-79
2022/04/09 01:07:17;;;;;;;2.90;0.88;;;;;10.90;100283.00;;;;5051246;28;20282;-79
2022/04/09 01:09:45;;;;;;;2.30;0.38;;;;;10.90;100282.00;;;;5057725;28;20729;-79
2022/04/09 01:12:16;;;;;;;2.30;0.90;;;;;10.90;100285.00;;;;5054206;28;20196;-78
2022/04/09 01:14:43;;;;;;;2.08;0.50;;;;;10.90;100288.00;;;;5062052;28;20195;-79
2022/04/09 01:17:11;;;;;;;3.70;0.70;;;;;10.90;100295.00;;;;5053136;28;20223;-79
2022/04/09 01:19:38;;;;;;;5.13;0.70;;;;;10.90;100300.00;;;;5054987;28;20199;-79
2022/04/09 01:22:07;;;;;;;4.43;0.82;;;;;10.90;100297.00;;;;5070375;28;20222;-80
2022/04/09 01:24:34;;;;;;;5.68;0.60;;;;;10.90;100300.00;;;;5067801;28;20200;-79
2022/04/09 01:27:01;;;;;;;3.65;0.63;;;;;11.00;100311.00;;;;5056013;28;20203;-79
2022/04/09 01:29:29;;;;;;;1.65;0.30;;;;;11.00;100311.00;;;;5066538;28;20203;-78
2022/04/09 01:31:56;;;;;;;4.43;0.90;;;;;11.00;100315.00;;;;5066510;28;20213;-79
2022/04/09 01:34:23;;;;;;;2.70;0.80;;;;;11.00;100335.00;;;;5069763;28;20227;-80
2022/04/09 01:36:51;;;;;;;4.50;0.90;;;;;11.10;100366.00;;;;5055255;28;20222;-80
2022/04/09 01:39:20;;;;;;;1.90;0.65;;;;;11.00;100362.00;;;;5069695;28;20207;-79
2022/04/09 01:41:47;;;;;;;1.65;0.38;;;;;11.00;100368.00;;;;5066403;28;20195;-80
2022/04/09 01:44:15;;;;;;;2.97;0.60;;;;;11.00;100369.00;;;;5055511;28;20191;-79
2022/04/09 01:46:44;;;;;;;4.97;0.65;;;;;11.00;100354.00;;;;5070435;28;20202;-79
2022/04/09 01:49:12;;;;;;;4.90;0.85;;;;;11.00;100352.00;;;;5069221;28;20199;-79
2022/04/09 01:51:40;;;;;;;2.05;0.52;;;;;11.00;100371.00;;;;5069670;28;20282;-80
2022/04/09 01:54:07;;;;;;;1.50;0.55;;;;;11.00;100391.00;;;;5069434;28;20194;-79
2022/04/09 01:56:35;;;;;;;4.10;0.50;;;;;11.10;100368.00;;;;5069731;28;20222;-79
2022/04/09 01:59:03;;;;;;;3.90;0.90;;;;;11.10;100387.00;;;;5066886;28;20201;-79
2022/04/09 02:01:30;;;;;;;1.88;0.50;;;;;11.00;100384.00;;;;5068650;28;20756;-80
2022/04/09 02:03:57;;;;;;;2.65;0.32;;;;;11.00;100379.00;;;;5069905;28;20573;-80
2022/04/09 02:06:25;;;;;;;2.45;0.63;;;;;11.00;100379.00;;;;5054448;28;20207;-80
2022/04/09 02:08:52;;;;;;;3.20;0.50;;;;;10.90;100389.00;;;;5057681;28;20199;-80
2022/04/09 02:11:19;;;;;;;1.40;0.63;;;;;10.90;100379.00;;;;5069358;28;20195;-79
2022/04/09 02:13:48;;;;;;;0.88;0.20;;;;;10.90;100393.00;;;;5063459;28;20191;-80
2022/04/09 02:16:16;;;;;;;1.30;0.20;;;;;10.90;100384.00;;;;5054647;28;20199;-79
2022/04/09 02:18:44;;;;;;;1.85;0.50;;;;;10.80;100399.00;;;;5065693;28;20281;-80
2022/04/09 02:21:11;;;;;;;2.67;0.60;;;;;10.90;100408.00;;;;5064066;28;20203;-80
2022/04/09 02:23:39;;;;;;;2.28;0.43;;;;;10.90;100463.00;;;;5069737;28;20197;-79
2022/04/09 02:26:08;;;;;;;1.13;0.10;;;;;10.80;100431.00;;;;5068630;28;20195;-79
2022/04/09 02:28:35;;;;;;;2.03;0.30;;;;;10.80;100434.00;;;;5068457;28;20298;-78
2022/04/09 02:31:04;;;;;;;2.55;0.47;;;;;10.80;100420.00;;;;5065311;28;20201;-79
2022/04/09 02:33:31;;;;;;;2.00;0.50;;;;;10.80;100426.00;;;;5061048;28;20650;-79
2022/04/09 02:35:58;;;;;;;1.75;0.47;;;;;10.70;100426.00;;;;5061116;28;20198;-80
2022/04/09 02:38:26;;;;;;;0.73;0.38;;;;;10.70;100424.00;;;;5055703;28;20723;-80
2022/04/09 02:40:55;;;;;;;3.15;0.30;;;;;10.70;100428.00;;;;5058153;28;20254;-79
2022/04/09 02:43:22;;;;;;;2.35;0.52;;;;;10.70;100434.00;;;;5051959;28;20681;-79
2022/04/09 02:45:50;;;;;;;1.73;0.60;;;;;10.70;100440.00;;;;5054643;28;20199;-80
2022/04/09 02:48:19;;;;;;;1.83;0.28;;;;;10.80;100442.00;;;;5048419;28;20199;-80
2022/04/09 02:50:48;;;;;;;2.67;0.60;;;;;10.80;100444.00;;;;5049880;28;20200;-80
2022/04/09 02:53:15;;;;;;;3.00;0.70;;;;;10.80;100452.00;;;;5048455;28;20202;-80
2022/04/09 02:55:42;;;;;;;1.65;0.35;;;;;10.90;100445.00;;;;5060119;28;20203;-79
2022/04/09 02:58:09;;;;;;;3.50;0.63;;;;;10.90;100458.00;;;;5064205;28;20240;-78
2022/04/09 03:00:37;;;;;;;4.20;1.02;;;;;10.90;100454.00;;;;5067732;28;20198;-79
2022/04/09 03:03:04;;;;;;;1.23;0.43;;;;;10.90;100449.00;;;;5068263;28;20191;-80
2022/04/09 03:05:33;;;;;;;1.90;0.50;;;;;10.90;100447.00;;;;5056234;28;20207;-79
2022/04/09 03:08:00;;;;;;;2.72;0.85;;;;;10.90;100449.00;;;;5057901;28;20253;-79
2022/04/09 03:10:27;;;;;;;0.73;0.40;;;;;10.90;100451.00;;;;5061184;28;20202;-79
2022/04/09 03:12:55;;;;;;;5.95;0.93;;;;;10.90;100452.00;;;;5059833;28;20195;-80
2022/04/09 03:15:22;;;;;;;1.42;0.50;;;;;10.90;100453.00;;;;5067258;28;20202;-79
2022/04/09 03:17:50;;;;;;;1.40;0.40;;;;;10.90;100466.00;;;;5053645;28;20226;-79
2022/04/09 03:20:17;;;;;;;2.03;0.30;;;;;10.90;100460.00;;;;5057739;28;20684;-79
2022/04/09 03:22:49;;;;;;;3.67;0.40;;;;;10.80;100475.00;;;;5052443;28;20220;-79
2022/04/09 03:25:17;;;;;;;0.93;0.10;;;;;10.90;100480.00;;;;5049610;28;20253;-79
2022/04/09 03:27:45;;;;;;;4.53;0.60;;;;;10.90;100488.00;;;;5060409;28;20275;-79
2022/04/09 03:30:12;;;;;;;1.70;0.47;;;;;10.90;100500.00;;;;5055260;28;20683;-79
2022/04/09 03:32:42;;;;;;;1.48;0.38;;;;;10.90;100512.00;;;;5066832;28;20246;-78
2022/04/09 03:35:11;;;;;;;1.90;0.52;;;;;10.90;100498.00;;;;5048518;28;20319;-79
2022/04/09 03:37:39;;;;;;;1.70;0.40;;;;;10.90;100494.00;;;;5048812;28;20313;-80
2022/04/09 03:40:09;;;;;;;1.52;0.38;;;;;10.80;100492.00;;;;5055051;28;20202;-80
2022/04/09 03:42:37;;;;;;;1.17;0.40;;;;;10.80;100495.00;;;;5068477;28;20202;-80
2022/04/09 03:45:05;;;;;;;3.50;0.65;;;;;10.80;100496.00;;;;5058901;28;20192;-80
2022/04/09 03:47:34;;;;;;;2.30;0.40;;;;;10.80;100507.00;;;;5061121;28;20203;-80
2022/04/09 03:50:02;;;;;;;1.70;0.38;;;;;10.80;100513.00;;;;5068232;28;20270;-80
2022/04/09 03:52:29;;;;;;;2.15;0.55;;;;;10.70;100513.00;;;;5068470;28;20341;-80
2022/04/09 03:54:57;;;;;;;2.05;0.63;;;;;10.70;100530.00;;;;5065118;28;20198;-80
2022/04/09 03:57:25;;;;;;;2.53;0.50;;;;;10.70;100530.00;;;;5057302;28;20303;-80
2022/04/09 03:59:55;;;;;;;5.25;1.10;;;;;10.80;100530.00;;;;5051796;28;20282;-80
2022/04/09 04:02:23;;;;;;;3.10;0.70;;;;;10.80;100538.00;;;;5067234;28;20183;-79
2022/04/09 04:04:50;;;;;;;1.05;0.30;;;;;10.80;100535.00;;;;5067576;28;20191;-80
2022/04/09 04:07:22;;;;;;;1.48;0.50;;;;;10.80;100539.00;;;;5066969;28;20203;-80
2022/04/09 04:09:50;;;;;;;3.20;0.38;;;;;10.80;100540.00;;;;5064200;28;20218;-80
2022/04/09 04:12:17;;;;;;;1.52;0.40;;;;;10.90;100539.00;;;;5047555;28;20750;-79
2022/04/09 04:14:46;;;;;;;2.00;0.47;;;;;10.90;100540.00;;;;5047783;28;20227;-80
2022/04/09 04:17:14;;;;;;;1.60;0.30;;;;;10.90;100536.00;;;;5047857;28;20685;-80
2022/04/09 04:19:41;;;;;;;0.80;0.22;;;;;10.90;100539.00;;;;5058161;28;20205;-80
2022/04/09 04:22:08;;;;;;;1.25;0.80;;;;;11.00;100552.00;;;;5066964;28;20215;-80
2022/04/09 04:24:37;;;;;;;2.10;0.20;;;;;11.00;100561.00;;;;5061994;28;20290;-80
2022/04/09 04:27:06;;;;;;;2.83;0.40;;;;;11.00;100568.00;;;;5063951;28;20195;-80
2022/04/09 04:29:34;;;;;;;2.45;0.30;;;;;11.00;100554.00;;;;5056484;28;20187;-79
2022/04/09 04:32:03;;;;;;;1.45;0.57;;;;;11.00;100547.00;;;;5067912;28;20210;-79
2022/04/09 04:34:30;;;;;;;3.53;0.40;;;;;11.00;100548.00;;;;5048052;28;20230;-79
2022/04/09 04:36:57;;;;;;;0.93;0.38;;;;;11.00;100553.00;;;;5055562;28;20183;-79
2022/04/09 04:39:25;;;;;;;3.47;0.40;;;;;11.00;100555.00;;;;5067486;28;20195;-79
2022/04/09 04:41:53;;;;;;;2.88;0.60;;;;;10.90;100558.00;;;;5056495;28;20230;-79
2022/04/09 04:44:20;;;;;;;1.15;0.35;;;;;10.90;100566.00;;;;5047809;28;20694;-80
2022/04/09 04:46:47;;;;;;;2.58;0.47;;;;;10.90;100578.00;;;;5048454;28;20195;-79
2022/04/09 04:49:16;;;;;;;1.65;0.32;;;;;10.90;100589.00;;;;5056289;28;20203;-79
2022/04/09 04:51:43;;;;;;;2.38;0.50;;;;;10.90;100597.00;;;;5067563;28;20199;-79
2022/04/09 04:54:11;;;;;;;1.27;0.50;;;;;10.90;100597.00;;;;5064013;28;20191;-80
2022/04/09 04:56:38;;;;;;;2.67;0.40;;;;;10.90;100611.00;;;;5056061;28;20207;-82
2022/04/09 04:59:07;;;;;;;1.52;0.40;;;;;10.90;100605.00;;;;5060215;28;20226;-81
2022/04/09 05:01:37;;;;;;;2.72;0.47;;;;;10.80;100604.00;;;;5062896;28;20211;-80
2022/04/09 05:04:05;;;;;;;1.08;0.30;;;;;10.80;100611.00;;;;5067497;28;20728;-79
2022/04/09 05:06:34;;;;;;;1.35;0.40;;;;;10.80;100615.00;;;;5065164;28;20202;-80
2022/04/09 05:09:01;;;;;;;4.45;0.90;;;;;10.80;100613.00;;;;5059938;28;20204;-79
2022/04/09 05:11:28;;;;;;;1.90;0.43;;;;;10.80;100615.00;;;;5068127;28;20661;-79
2022/04/09 05:13:55;;;;;;;3.47;0.80;;;;;10.80;100616.00;;;;5065472;28;20200;-79
2022/04/09 05:16:23;;;;;;;1.90;0.40;;;;;10.80;100627.00;;;;5063788;28;20195;-79
2022/04/09 05:18:50;;;;;;;3.13;0.55;;;;;10.90;100629.00;;;;5062670;28;20256;-81
2022/04/09 05:21:18;;;;;;;2.78;0.32;;;;;10.90;100630.00;;;;5055800;28;20382;-81
2022/04/09 05:23:46;;;;;;;2.28;0.40;;;;;10.90;100639.00;;;;5050769;28;20214;-81
2022/04/09 05:26:13;;;;;;;2.05;0.28;;;;;11.00;100632.00;;;;5060379;28;20199;-81
2022/04/09 05:28:41;;;;;;;1.27;0.25;;;;;11.00;100642.00;;;;5067880;28;20195;-81
2022/04/09 05:31:11;;;;;;;1.05;0.35;;;;;11.10;100642.00;;;;5068743;28;20211;-80
2022/04/09 05:33:39;;;;;;;1.60;0.55;;;;;11.10;100646.00;;;;5064030;28;20223;-81
2022/04/09 05:36:07;;;;;;;3.28;0.68;;;;;11.10;100651.00;;;;5071195;28;20198;-82
2022/04/09 05:38:34;;;;;;;0.88;0.40;;;;;11.20;100655.00;;;;5056847;28;20218;-79
2022/04/09 05:41:03;;;;;;;1.45;0.40;;;;;11.20;100668.00;;;;5068269;28;20205;-80
2022/04/09 05:43:30;;;;;;;2.90;0.52;;;;;11.30;100673.00;;;;5057289;28;20212;-80
2022/04/09 05:45:57;;;;;;;3.85;0.38;;;;;11.30;100673.00;;;;5068971;28;20276;-77
2022/04/09 05:48:24;;;;;;;2.58;0.50;;;;;11.30;100670.00;;;;5071307;28;20202;-78
2022/04/09 05:50:52;;;;;;;1.73;0.95;;;;;11.40;100673.00;;;;5069990;28;20225;-79
2022/04/09 05:53:20;;;;;;;2.15;0.77;;;;;11.40;100676.00;;;;5066726;28;20187;-79
2022/04/09 05:55:48;;;;;;;1.17;0.50;;;;;11.40;100680.00;;;;5064457;28;20447;-79
2022/04/09 05:58:17;;;;;;;2.92;0.60;;;;;11.50;100687.00;;;;5071092;28;20268;-78
2022/04/09 06:00:44;;;;;;;4.25;0.70;;;;;11.50;100694.00;;;;5068514;28;20199;-78
2022/04/09 06:03:11;;;;;;;4.30;0.85;;;;;11.60;100699.00;;;;5071769;28;20731;-79
2022/04/09 06:05:42;;;;;;;3.55;0.90;;;;;11.60;100710.00;;;;5065500;28;20617;-79
2022/04/09 06:08:12;;;;;;;4.85;0.80;;;;;11.60;100704.00;;;;5064071;28;20226;-81
2022/04/09 06:10:39;;;;;;;1.73;0.60;;;;;11.70;100712.00;;;;5061789;28;20191;-79
2022/04/09 06:13:07;;;;;;;3.05;0.82;;;;;11.70;100711.00;;;;5066971;28;20742;-79
2022/04/09 06:15:36;;;;;;;2.45;0.40;;;;;11.70;100715.00;;;;5073284;28;20202;-79
2022/04/09 06:18:07;;;;;;;3.30;0.60;;;;;11.80;100725.00;;;;5063888;28;20234;-79
2022/04/09 06:20:34;;;;;;;1.83;0.70;;;;;11.80;100721.00;;;;5062284;28;20234;-78
2022/04/09 06:23:04;;;;;;;2.55;0.60;;;;;11.80;100730.00;;;;5054227;28;20224;-79
2022/04/09 06:25:31;;;;;;;2.58;0.75;;;;;11.90;100734.00;;;;5065540;28;20213;-79
2022/04/09 06:27:58;;;;;;;3.45;0.40;;;;;11.90;100739.00;;;;5090327;28;20213;-79
2022/04/09 06:30:29;;;;;;;7.38;1.85;;;;;11.90;100749.00;;;;5077666;28;20542;-79
2022/04/09 06:32:58;;;;;;;4.93;0.70;;;;;11.90;100749.00;;;;5074624;28;20202;-79
2022/04/09 06:35:26;;;;;;;3.30;0.68;;;;;11.90;100758.00;;;;5074358;28;20250;-79
2022/04/09 06:37:53;;;;;;;5.97;1.60;;;;;11.90;100748.00;;;;5069147;28;20223;-79
2022/04/09 06:40:20;;;;;;;2.45;1.00;;;;;11.90;100753.00;;;;5065185;28;20222;-79
2022/04/09 06:42:48;;;;;;;3.55;1.30;;;;;11.90;100763.00;;;;5071556;28;20567;-79
2022/04/09 06:45:16;;;;;;;4.93;0.95;;;;;12.00;100762.00;;;;5072864;28;20480;-79
2022/04/09 06:47:43;;;;;;;2.88;0.63;;;;;12.00;100760.00;;;;5061739;28;20191;-79
2022/04/09 06:50:14;;;;;;;3.20;0.60;;;;;12.10;100770.00;;;;5062602;28;20199;-79
2022/04/09 06:52:41;;;;;;;4.22;0.70;;;;;12.20;100759.00;;;;5073183;28;20669;-80
2022/04/09 06:55:10;;;;;;;2.75;0.80;;;;;12.20;100770.00;;;;5074955;28;20233;-79
2022/04/09 06:57:41;;;;;;;5.53;0.68;;;;;12.30;100771.00;;;;5075325;28;20214;-79
2022/04/09 07:00:15;;;;;;;4.28;0.60;;;;;12.40;100774.00;;;;5073100;28;20278;-79
2022/04/09 07:02:42;;;;;;;2.60;0.75;;;;;12.60;100784.00;;;;5070396;28;20278;-78
2022/04/09 07:05:12;;;;;;;3.28;1.10;;;;;12.70;100784.00;;;;5076699;28;20214;-78
2022/04/09 07:07:48;;;;;;;7.25;0.80;;;;;12.70;100797.00;;;;5072571;28;20195;-78
2022/04/09 07:10:16;;;;;;;2.92;0.75;;;;;12.90;100807.00;;;;5079185;28;20199;-78
2022/04/09 07:12:43;;;;;;;2.92;0.60;;;;;12.90;100815.00;;;;5072687;28;20199;-78
2022/04/09 07:15:11;;;;;;;2.85;0.70;;;;;12.90;100813.00;;;;5065025;28;20287;-77
2022/04/09 07:17:42;;;;;;;1.20;0.47;;;;;12.90;100814.00;;;;5066516;28;20204;-77
2022/04/09 07:20:12;;;;;;;2.53;0.22;;;;;12.80;100823.00;;;;5074799;28;20203;-76
2022/04/09 07:22:40;;;;;;;1.23;0.52;;;;;12.70;100819.00;;;;5060380;28;20253;-76
2022/04/09 07:25:08;;;;;;;5.50;0.20;;;;;12.70;100826.00;;;;5057609;28;20213;-75
2022/04/09 07:27:37;;;;;;;0.80;0.30;;;;;12.60;100830.00;;;;5061665;28;20657;-75
2022/04/09 07:30:07;;;;;;;0.77;0.20;;;;;12.50;100826.00;;;;5065828;28;20683;-79
2022/04/09 07:32:35;;;;;;;1.58;0.47;;;;;12.50;100826.00;;;;5060080;28;20568;-76
2022/04/09 07:35:03;;;;;;;2.55;0.43;;;;;12.50;100838.00;;;;5068030;28;20638;-76
2022/04/09 07:37:32;;;;;;;1.38;0.60;;;;;12.50;100849.00;;;;5067788;28;20290;-76
2022/04/09 07:39:59;;;;;;;0.73;0.50;;;;;12.60;100834.00;;;;5059962;28;20233;-76
2022/04/09 07:42:26;;;;;;;2.10;0.20;;;;;12.60;100837.00;;;;5057493;28;20195;-76
2022/04/09 07:44:54;;;;;;;2.83;0.57;;;;;12.60;100838.00;;;;5066870;28;20202;-76
2022/04/09 07:47:21;;;;;;;1.38;0.30;;;;;12.50;100836.00;;;;5068828;28;20664;-76
2022/04/09 07:49:49;;;;;;;3.13;0.52;;;;;12.60;100847.00;;;;5067884;28;20703;-76
2022/04/09 07:52:16;;;;;;;2.47;0.63;;;;;12.60;100863.00;;;;5049078;28;20221;-76
2022/04/09 07:54:45;;;;;;;1.27;0.40;;;;;12.60;100859.00;;;;5054344;28;20206;-76
2022/04/09 07:57:12;;;;;;;1.13;0.22;;;;;12.60;100859.00;;;;5066383;28;20210;-76
2022/04/09 07:59:39;;;;;;;2.15;0.47;;;;;12.70;100855.00;;;;5060736;28;20227;-78
2022/04/09 08:02:07;;;;;;;4.30;0.50;;;;;12.70;100851.00;;;;5074951;28;20187;-77
2022/04/09 08:04:34;;;;;;;1.88;0.35;;;;;12.80;100860.00;;;;5073164;28;20209;-77
2022/04/09 08:07:01;;;;;;;3.78;0.65;;;;;12.90;100856.00;;;;5073044;28;20743;-78
2022/04/09 08:09:28;;;;;;;3.03;0.77;;;;;12.90;100859.00;;;;5059658;28;20241;-78
2022/04/09 08:11:57;;;;;;;1.73;0.32;;;;;13.00;100860.00;;;;5057386;28;20216;-79
2022/04/09 08:14:25;;;;;;;3.00;0.70;;;;;13.00;100862.00;;;;5056832;28;20209;-78
2022/04/09 08:16:53;;;;;;;2.38;0.50;;;;;13.10;100859.00;;;;5074305;28;20192;-80
2022/04/09 08:19:21;;;;;;;5.93;0.57;;;;;13.20;100871.00;;;;5066555;28;20226;-81
2022/04/09 08:21:50;;;;;;;2.22;0.40;;;;;13.30;100870.00;;;;5052591;28;20257;-81
2022/04/09 08:24:19;;;;;;;3.08;0.60;;;;;13.40;100854.00;;;;5051918;28;20216;-81
2022/04/09 08:26:46;;;;;;;2.30;0.45;;;;;13.50;100864.00;;;;5053407;28;20195;-81
2022/04/09 08:29:19;;;;;;;1.05;0.40;;;;;13.60;100866.00;;;;5062075;28;20183;-81
2022/04/09 08:31:47;;;;;;;2.25;0.60;;;;;13.70;100862.00;;;;5066049;28;20188;-82
2022/04/09 08:34:14;;;;;;;1.17;0.50;;;;;13.80;100871.00;;;;5064798;28;20262;-82
2022/04/09 08:36:42;;;;;;;5.03;0.75;;;;;13.80;100870.00;;;;5067223;28;20214;-78
2022/04/09 08:39:09;;;;;;;1.92;0.50;;;;;13.80;100897.00;;;;5054284;28;20231;-79
2022/04/09 08:41:38;;;;;;;1.92;0.50;;;;;13.70;100904.00;;;;5058290;28;20192;-79
2022/04/09 08:44:07;;;;;;;3.03;0.43;;;;;13.70;100900.00;;;;5058832;28;20234;-78
2022/04/09 08:46:37;;;;;;;1.90;0.40;;;;;13.60;100899.00;;;;5061270;28;20200;-77
2022/04/09 08:49:06;;;;;;;0.60;0.28;;;;;13.60;100898.00;;;;5068727;28;20256;-79
2022/04/09 08:51:34;;;;;;;0.88;0.40;;;;;13.60;100899.00;;;;5062804;28;20208;-79
2022/04/09 08:54:02;;;;;;;1.48;0.55;;;;;13.60;100912.00;;;;5075156;28;20199;-78
2022/04/09 08:56:31;;;;;;;2.45;0.50;;;;;13.70;100921.00;;;;5085490;28;20210;-79
2022/04/09 08:58:58;;;;;;;1.90;0.30;;;;;13.70;100918.00;;;;5076076;28;20258;-78
2022/04/09 09:01:26;;;;;;;5.10;0.68;;;;;13.60;100915.00;;;;5080724;28;20206;-78
2022/04/09 09:03:56;;;;;;;1.10;0.35;;;;;13.60;100914.00;;;;5087512;28;20750;-78
2022/04/09 09:06:28;;;;;;;1.65;0.35;;;;;13.60;100924.00;;;;5090541;28;20182;-78
2022/04/09 09:08:55;;;;;;;2.05;0.40;;;;;13.70;100925.00;;;;5068064;28;20666;-78
2022/04/09 09:11:23;;;;;;;1.23;0.20;;;;;13.80;100931.00;;;;5080480;28;20222;-78
2022/04/09 09:13:51;;;;;;;1.83;0.60;;;;;13.80;100941.00;;;;5078333;28;20700;-78
2022/04/09 09:16:27;;;;;;;2.40;0.38;;;;;13.80;100936.00;;;;5075457;28;20195;-78
2022/04/09 09:18:57;;;;;;;2.67;0.57;;;;;13.90;100953.00;;;;5077367;28;20234;-78
2022/04/09 09:21:26;;;;;;;0.57;0.15;;;;;14.00;100947.00;;;;5060239;28;20223;-79
2022/04/09 09:24:10;;;;;;;2.50;0.50;;;;;14.00;100961.00;;;;5054595;28;20192;-79
2022/04/09 09:26:38;;;;;;;1.50;0.40;;;;;14.00;101015.00;;;;5057336;28;20210;-80
2022/04/09 09:29:08;;;;;;;2.50;0.65;;;;;13.70;101004.00;;;;5072650;28;20245;-78
2022/04/09 09:31:41;;;;;;;1.40;0.32;;;;;13.40;100995.00;;;;5074218;28;20206;-79
2022/04/09 09:34:11;;;;;;;2.42;0.47;;;;;13.20;100994.00;;;;5073818;28;20762;-79
2022/04/09 09:36:40;;;;;;;2.42;0.32;;;;;13.00;100997.00;;;;5074020;28;20248;-79
2022/04/09 09:39:09;;;;;;;1.30;0.43;;;;;12.80;100999.00;;;;5076156;28;20686;-78
2022/04/09 09:41:47;;;;;;;1.90;0.30;;;;;12.60;100987.00;;;;5071725;28;20233;-79
2022/04/09 09:44:16;;;;;;;3.22;0.38;;;;;12.50;100987.00;;;;5068648;28;20208;-79
2022/04/09 09:46:45;;;;;;;0.73;0.10;;;;;12.40;100990.00;;;;5054623;28;20550;-78
2022/04/09 09:49:14;;;;;;;0.30;0.10;;;;;12.30;100988.00;;;;5052201;28;20234;-79
2022/04/09 09:51:42;;;;;;;0.20;0.10;;;;;12.30;100996.00;;;;5054877;28;20203;-79
2022/04/09 09:54:11;;;;;;;0.55;0.15;;;;;12.30;100998.00;;;;5068308;28;20199;-79
2022/04/09 09:56:41;;;;;;;1.02;0.15;;;;;12.20;101002.00;;;;5071930;28;20294;-79
2022/04/09 09:59:09;;;;;;;0.10;0.08;;;;;12.20;101017.00;;;;5070993;28;20221;-80
2022/04/09 10:01:37;;;;;;;1.30;0.47;;;;;12.30;101008.00;;;;5070906;28;20203;-79
2022/04/09 10:04:06;;;;;;;1.02;0.30;;;;;12.40;101011.00;;;;5069793;28;20249;-79
2022/04/09 10:06:38;;;;;;;0.35;0.10;;;;;12.50;101017.00;;;;5064112;28;20206;-79
2022/04/09 10:09:06;;;;;;;2.88;0.25;;;;;12.60;101007.00;;;;5049779;28;20291;-80
2022/04/09 10:11:36;;;;;;;0.10;0.00;;;;;12.80;101005.00;;;;5049482;28;20760;-80
2022/04/09 10:14:05;;;;;;;1.50;0.77;;;;;13.00;100993.00;;;;5050466;28;20204;-80
2022/04/09 10:16:35;;;;;;;4.18;0.75;;;;;13.10;100991.00;;;;5050553;28;20294;-81
2022/04/09 10:19:05;;;;;;;0.88;0.20;;;;;13.30;100994.00;;;;5067960;28;20600;-81
2022/04/09 10:21:39;;;;;;;0.55;0.35;;;;;13.50;100998.00;;;;5055456;28;20207;-80
2022/04/09 10:24:16;;;;;;;0.50;0.10;;;;;13.70;100990.00;;;;5049692;28;21060;-81
2022/04/09 10:26:44;;;;;;;0.63;0.20;;;;;13.90;100994.00;;;;5050064;28;20187;-80
2022/04/09 10:29:11;;;;;;;0.88;0.50;;;;;14.10;100985.00;;;;5049225;28;20206;-81
2022/04/09 10:31:40;;;;;;;2.40;0.47;;;;;14.30;100990.00;;;;5049750;28;20214;-81
2022/04/09 10:34:10;;;;;;;1.35;0.60;;;;;14.50;100993.00;;;;5051515;28;20227;-80
2022/04/09 10:37:02;;;;;;;4.32;0.70;;;;;14.60;100991.00;;;;5064505;28;20242;-81
2022/04/09 10:39:36;;;;;;;3.08;0.60;;;;;14.90;101004.00;;;;5049454;28;20310;-80
2022/04/09 10:42:04;;;;;;;1.58;0.47;;;;;15.10;101015.00;;;;5050596;28;20199;-80
2022/04/09 10:44:36;;;;;;;5.30;0.88;;;;;15.10;101033.00;;;;5057206;28;20238;-80
2022/04/09 10:47:04;;;;;;;1.15;0.10;;;;;15.10;101067.00;;;;5068134;28;20207;-80
2022/04/09 10:49:32;;;;;;;1.35;0.45;;;;;15.00;101060.00;;;;5069102;28;21090;-77
2022/04/09 10:52:11;;;;;;;0.47;0.20;;;;;14.70;101043.00;;;;5068108;28;20195;-77
2022/04/09 10:54:39;;;;;;;0.55;0.08;;;;;14.40;101038.00;;;;5067125;28;20274;-77
2022/04/09 10:57:20;;;;;;;1.67;0.75;;;;;14.20;101050.00;;;;5061666;28;20573;-76
2022/04/09 10:59:57;;;;;;;0.80;0.30;;;;;13.90;101053.00;;;;5069112;28;20222;-77
2022/04/09 11:02:25;;;;;;;1.15;0.30;;;;;13.90;101059.00;;;;5071975;28;20673;-78
2022/04/09 11:04:53;;;;;;;0.85;0.30;;;;;13.80;101056.00;;;;5052352;28;20195;-77
2022/04/09 11:07:22;;;;;;;1.30;0.40;;;;;13.60;101057.00;;;;5052880;28;20211;-77
2022/04/09 11:09:57;;;;;;;1.35;0.30;;;;;13.50;101053.00;;;;5062684;28;20478;-77
2022/04/09 11:12:26;;;;;;;1.65;0.40;;;;;13.40;101056.00;;;;5059162;28;20202;-79
2022/04/09 11:14:55;;;;;;;1.38;0.50;;;;;13.40;101056.00;;;;5061098;28;20265;-76
2022/04/09 11:17:28;;;;;;;1.25;0.30;;;;;13.40;101054.00;;;;5056213;28;20207;-77
2022/04/09 11:19:56;;;;;;;2.28;0.50;;;;;13.40;101049.00;;;;5056621;28;20223;-78
2022/04/09 11:22:34;;;;;;;3.38;0.30;;;;;13.40;101054.00;;;;5057467;28;20231;-77
2022/04/09 11:25:02;;;;;;;0.82;0.20;;;;;13.60;101052.00;;;;5055153;28;20202;-77
2022/04/09 11:27:30;;;;;;;1.77;0.28;;;;;13.80;101069.00;;;;5072506;28;20202;-78
2022/04/09 11:29:58;;;;;;;2.53;0.70;;;;;13.80;101077.00;;;;5069711;28;20195;-78
2022/04/09 11:32:26;;;;;;;2.40;0.50;;;;;13.80;101091.00;;;;5070838;28;20199;-78
2022/04/09 11:34:56;;;;;;;1.90;0.65;;;;;13.90;101076.00;;;;5056840;28;20239;-79
2022/04/09 11:37:28;;;;;;;4.85;0.57;;;;;13.90;101068.00;;;;5064491;28;20548;-77
2022/04/09 11:39:58;;;;;;;1.85;0.43;;;;;13.90;101076.00;;;;5069545;28;20218;-78
2022/04/09 11:42:26;;;;;;;1.25;0.40;;;;;13.90;101065.00;;;;5058045;28;20203;-79
2022/04/09 11:44:53;;;;;;;1.10;0.32;;;;;13.90;101065.00;;;;5068702;28;20199;-79
2022/04/09 11:47:24;;;;;;;0.30;0.20;;;;;14.00;101064.00;;;;5069080;28;20187;-79
2022/04/09 11:49:54;;;;;;;1.38;0.50;;;;;14.10;101069.00;;;;5062530;28;20187;-80
2022/04/09 11:52:29;;;;;;;2.25;0.35;;;;;14.10;101078.00;;;;5054110;28;20599;-79
2022/04/09 11:55:01;;;;;;;1.50;0.20;;;;;14.20;101082.00;;;;5051424;28;20197;-79
2022/04/09 11:57:29;;;;;;;0.40;0.28;;;;;14.30;101087.00;;;;5064056;28;20575;-78
2022/04/09 11:59:56;;;;;;;2.95;0.60;;;;;14.30;101079.00;;;;5064669;28;20276;-78
2022/04/09 12:02:26;;;;;;;1.85;0.38;;;;;14.40;101074.00;;;;5063074;28;20210;-79
2022/04/09 12:04:54;;;;;;;3.40;0.30;;;;;14.40;101068.00;;;;5062703;28;20190;-80
2022/04/09 12:07:22;;;;;;;1.95;0.30;;;;;14.50;101058.00;;;;5063451;28;20271;-80
2022/04/09 12:09:49;;;;;;;1.08;0.55;;;;;14.60;101055.00;;;;5049506;28;20199;-79
2022/04/09 12:12:20;;;;;;;1.45;0.40;;;;;14.70;101068.00;;;;5067204;28;20244;-78
2022/04/09 12:14:55;;;;;;;0.88;0.20;;;;;14.80;101065.00;;;;5062352;28;21328;-77